createdAt,value
2022-09-04T00:00:48.092Z,98978.78
2022-09-04T00:03:35.468Z,98976.25
2022-09-04T00:06:07.649Z,98970.91
2022-09-04T00:08:56.741Z,98975.97
2022-09-04T00:11:38.214Z,98981.44
2022-09-04T00:14:17.742Z,98979.78
2022-09-04T00:17:07.388Z,98983.13
2022-09-04T00:20:10.401Z,98980.59
2022-09-04T00:22:53.943Z,98982.44
2022-09-04T00:25:29.663Z,98974.13
2022-09-04T00:28:38.146Z,98980.69
2022-09-04T00:31:30.841Z,98981.16
2022-09-04T00:34:09.555Z,98981.31
2022-09-04T00:36:40.878Z,98981.81
2022-09-04T00:39:15.566Z,98983.81
2022-09-04T00:44:31.961Z,98992.97
2022-09-04T00:47:17.263Z,98997.63
2022-09-04T00:49:58.771Z,98994.56
2022-09-04T00:52:36.313Z,99002.91
2022-09-04T00:55:06.741Z,98998.22
2022-09-04T00:57:39.028Z,98999.53
2022-09-04T01:00:07.415Z,99002.72
2022-09-04T01:02:51.686Z,99005.41
2022-09-04T01:05:40.505Z,99012.56
2022-09-04T01:08:25.980Z,99016.41
2022-09-04T01:11:32.109Z,99021.47
2022-09-04T01:14:13.317Z,99020.09
2022-09-04T01:16:59.720Z,99032.44
2022-09-04T01:19:35.082Z,99029.94
2022-09-04T01:22:04.601Z,99031.06
2022-09-04T01:24:34.075Z,99036.31
2022-09-04T01:27:21.536Z,99028.78
2022-09-04T01:29:57.074Z,99038.59
2022-09-04T01:32:23.710Z,99033.59
2022-09-04T01:35:06.987Z,99041.28
2022-09-04T01:38:04.046Z,99040.44
2022-09-04T01:40:47.362Z,99036.91
2022-09-04T01:43:21.186Z,99038.59
2022-09-04T01:46:08.182Z,99042.97
2022-09-04T01:48:54.658Z,99033.13
2022-09-04T01:51:24.360Z,99043.09
2022-09-04T01:54:03.381Z,99033.59
2022-09-04T01:56:40.342Z,99043.56
2022-09-04T01:59:26.629Z,99049.88
2022-09-04T02:02:15.707Z,99053.53
2022-09-04T02:05:17.778Z,99046.84
2022-09-04T02:08:34.056Z,99049.97
2022-09-04T02:11:18.761Z,99060.66
2022-09-04T02:13:47.184Z,99048.03
2022-09-04T02:16:45.484Z,99047.88
2022-09-04T02:19:50.295Z,99042.69
2022-09-04T02:22:47.846Z,99042.13
2022-09-04T02:25:24.665Z,99041.59
2022-09-04T02:27:54.232Z,99042.22
2022-09-04T02:30:21.535Z,99043.91
2022-09-04T02:33:06.209Z,99040.25
2022-09-04T02:35:43.982Z,99048.53
2022-09-04T02:38:47.924Z,99049.50
2022-09-04T02:41:50.897Z,99049.50
2022-09-04T02:44:47.582Z,99050.09
2022-09-04T02:47:29.148Z,99060.38
2022-09-04T02:49:58.700Z,99051.38
2022-09-04T02:52:45.266Z,99061.66
2022-09-04T02:55:45.409Z,99057.44
2022-09-04T02:58:39.704Z,99054.94
2022-09-04T03:01:28.942Z,99060.56
2022-09-04T03:04:13.808Z,99063.69
2022-09-04T03:06:43.332Z,99072.22
2022-09-04T03:09:36.109Z,99069.44
2022-09-04T03:12:26.346Z,99076.03
2022-09-04T03:15:14.981Z,99068.03
2022-09-04T03:17:50.267Z,99069.59
2022-09-04T03:20:26.708Z,99072.13
2022-09-04T03:23:21.437Z,99070.44
2022-09-04T03:25:54.226Z,99076.75
2022-09-04T03:28:31.178Z,99078.59
2022-09-04T03:31:02.860Z,99078.19
2022-09-04T03:33:51.050Z,99075.81
2022-09-04T03:36:40.255Z,99077.06
2022-09-04T03:39:34.655Z,99077.50
2022-09-04T03:42:16.768Z,99081.44
2022-09-04T03:44:52.293Z,99085.34
2022-09-04T03:47:56.049Z,99079.75
2022-09-04T03:50:33.650Z,99085.66
2022-09-04T03:53:09.250Z,99084.25
2022-09-04T03:55:48.050Z,99076.41
2022-09-04T03:58:38.185Z,99084.69
2022-09-04T04:01:31.027Z,99084.25
2022-09-04T04:04:16.196Z,99090.72
2022-09-04T04:06:48.898Z,99098.97
2022-09-04T04:09:27.062Z,99101.09
2022-09-04T04:12:27.581Z,99091.84
2022-09-04T04:15:12.875Z,99099.13
2022-09-04T04:18:21.892Z,99114.94
2022-09-04T04:21:35.983Z,99109.78
2022-09-04T04:24:48.216Z,99113.97
2022-09-04T04:27:36.108Z,99116.22
2022-09-04T04:30:05.712Z,99113.69
2022-09-04T04:32:41.297Z,99125.41
2022-09-04T04:35:18.220Z,99123.59
2022-09-04T04:38:06.548Z,99121.22
2022-09-04T04:40:47.961Z,99125.13
2022-09-04T04:43:17.472Z,99128.22
2022-09-04T04:46:10.365Z,99130.69
2022-09-04T04:48:48.326Z,99131.84
2022-09-04T04:51:42.375Z,99135.47
2022-09-04T04:54:43.077Z,99136.44
2022-09-04T04:57:18.747Z,99137.69
2022-09-04T04:59:54.431Z,99146.66
2022-09-04T05:02:54.316Z,99147.63
2022-09-04T05:05:45.978Z,99151.38
2022-09-04T05:08:29.305Z,99156.97
2022-09-04T05:11:07.745Z,99161.31
2022-09-04T05:14:02.219Z,99164.81
2022-09-04T05:16:54.833Z,99164.94
2022-09-04T05:19:22.595Z,99171.13
2022-09-04T05:22:19.659Z,99172.81
2022-09-04T05:25:01.114Z,99178.13
2022-09-04T05:27:42.955Z,99182.84
2022-09-04T05:30:22.328Z,99183.69
2022-09-04T05:33:01.041Z,99185.94
2022-09-04T05:35:59.853Z,99186.09
2022-09-04T05:38:33.988Z,99192.50
2022-09-04T05:41:06.205Z,99196.72
2022-09-04T05:44:02.598Z,99199.81
2022-09-04T05:46:31.919Z,99201.22
2022-09-04T05:49:09.033Z,99208.22
2022-09-04T05:51:58.227Z,99222.94
2022-09-04T05:54:54.957Z,99219.72
2022-09-04T05:57:28.827Z,99218.75
2022-09-04T06:00:14.852Z,99224.81
2022-09-04T06:03:05.714Z,99221.72
2022-09-04T06:05:39.636Z,99220.09
2022-09-04T06:08:28.507Z,99223.88
2022-09-04T06:11:14.087Z,99223.19
2022-09-04T06:14:23.987Z,99222.50
2022-09-04T06:17:29.158Z,99225.59
2022-09-04T06:20:15.944Z,99229.38
2022-09-04T06:23:19.701Z,99242.03
2022-09-04T06:26:04.459Z,99236.00
2022-09-04T06:29:02.375Z,99236.16
2022-09-04T06:31:50.039Z,99240.63
2022-09-04T06:34:45.868Z,99241.81
2022-09-04T06:37:24.466Z,99240.13
2022-09-04T06:40:12.240Z,99234.25
2022-09-04T06:50:53.733Z,99224.34
2022-09-04T06:53:59.649Z,99243.13
2022-09-04T06:56:29.008Z,99235.94
2022-09-04T06:59:31.239Z,99238.88
2022-09-04T07:02:25.995Z,99240.75
2022-09-04T07:05:17.981Z,99247.72
2022-09-04T07:07:52.522Z,99249.84
2022-09-04T07:10:28.352Z,99250.34
2022-09-04T07:13:13.539Z,99258.84
2022-09-04T07:15:50.026Z,99250.31
2022-09-04T07:18:51.162Z,99252.06
2022-09-04T07:21:30.370Z,99253.78
2022-09-04T07:24:03.568Z,99246.59
2022-09-04T07:26:34.757Z,99254.06
2022-09-04T07:29:37.384Z,99256.13
2022-09-04T07:32:20.213Z,99249.97
2022-09-04T07:34:56.928Z,99260.34
2022-09-04T07:37:33.353Z,99249.56
2022-09-04T07:40:10.044Z,99253.84
2022-09-04T07:42:42.825Z,99250.53
2022-09-04T07:45:34.560Z,99254.59
2022-09-04T07:48:39.185Z,99255.91
2022-09-04T07:51:14.882Z,99261.53
2022-09-04T07:54:05.831Z,99264.59
2022-09-04T07:56:58.288Z,99265.56
2022-09-04T07:59:56.440Z,99271.22
2022-09-04T08:02:50.837Z,99269.38
2022-09-04T08:05:29.757Z,99266.84
2022-09-04T08:08:17.848Z,99271.00
2022-09-04T08:11:15.842Z,99268.63
2022-09-04T08:14:02.006Z,99266.44
2022-09-04T08:16:40.892Z,99277.66
2022-09-04T08:19:48.757Z,99274.31
2022-09-04T08:22:30.847Z,99280.81
2022-09-04T08:25:23.952Z,99274.69
2022-09-04T08:27:50.491Z,99277.09
2022-09-04T08:30:20.320Z,99281.38
2022-09-04T08:33:06.910Z,99286.78
2022-09-04T08:35:52.234Z,99280.81
2022-09-04T08:38:44.849Z,99283.34
2022-09-04T08:41:40.039Z,99285.47
2022-09-04T08:44:28.237Z,99282.69
2022-09-04T08:47:10.431Z,99283.56
2022-09-04T08:49:58.657Z,99286.50
2022-09-04T08:52:46.540Z,99294.13
2022-09-04T08:55:25.516Z,99293.72
2022-09-04T08:58:01.293Z,99291.22
2022-09-04T09:00:40.727Z,99293.56
2022-09-04T09:03:22.248Z,99287.81
2022-09-04T09:06:26.529Z,99291.81
2022-09-04T09:09:11.313Z,99295.16
2022-09-04T09:11:50.106Z,99294.78
2022-09-04T09:14:41.936Z,99290.53
2022-09-04T09:17:38.276Z,99296.69
2022-09-04T09:20:29.677Z,99293.91
2022-09-04T09:23:20.743Z,99304.31
2022-09-04T09:26:09.114Z,99302.47
2022-09-04T09:29:13.393Z,99305.25
2022-09-04T09:31:52.177Z,99295.63
2022-09-04T09:34:56.291Z,99283.31
2022-09-04T09:37:44.895Z,99300.47
2022-09-04T09:40:23.983Z,99288.94
2022-09-04T09:43:34.679Z,99279.44
2022-09-04T09:46:10.128Z,99281.41
2022-09-04T09:49:04.752Z,99277.25
2022-09-04T09:51:50.208Z,99277.78
2022-09-04T09:54:32.804Z,99270.63
2022-09-04T09:57:29.688Z,99276.72
2022-09-04T10:00:17.022Z,99268.59
2022-09-04T10:03:07.199Z,99268.53
2022-09-04T10:06:11.675Z,99262.94
2022-09-04T10:09:09.227Z,99263.00
2022-09-04T10:12:04.213Z,99270.66
2022-09-04T10:15:00.449Z,99262.75
2022-09-04T10:18:04.193Z,99259.03
2022-09-04T10:21:10.530Z,99255.88
2022-09-04T10:24:21.987Z,99250.53
2022-09-04T10:27:09.155Z,99248.97
2022-09-04T10:30:02.823Z,99240.75
2022-09-04T10:32:40.603Z,99248.34
2022-09-04T10:35:25.242Z,99249.66
2022-09-04T10:38:01.024Z,99242.72
2022-09-04T10:41:14.949Z,99245.72
2022-09-04T10:44:05.730Z,99242.81
2022-09-04T10:46:48.608Z,99244.31
2022-09-04T10:49:18.209Z,99239.38
2022-09-04T10:52:21.736Z,99240.44
2022-09-04T10:55:06.921Z,99230.84
2022-09-04T10:58:01.664Z,99224.97
2022-09-04T11:00:51.240Z,99217.16
2022-09-04T11:03:28.090Z,99221.59
2022-09-04T11:06:26.351Z,99226.94
2022-09-04T11:09:07.783Z,99226.94
2022-09-04T11:11:46.857Z,99217.25
2022-09-04T11:14:30.773Z,99224.50
2022-09-04T11:17:04.328Z,99221.38
2022-09-04T11:20:18.405Z,99221.78
2022-09-04T11:23:22.381Z,99213.88
2022-09-04T11:26:07.738Z,99214.94
2022-09-04T11:29:10.962Z,99223.94
2022-09-04T11:31:40.174Z,99208.41
2022-09-04T11:34:26.366Z,99208.41
2022-09-04T11:37:02.066Z,99209.22
2022-09-04T11:39:56.229Z,99207.13
2022-09-04T11:42:41.733Z,99210.66
2022-09-04T11:45:48.169Z,99213.38
2022-09-04T11:48:29.430Z,99207.97
2022-09-04T11:51:28.858Z,99203.59
2022-09-04T11:54:04.524Z,99206.97
2022-09-04T11:56:33.932Z,99206.38
2022-09-04T11:59:15.731Z,99209.91
2022-09-04T12:01:57.626Z,99211.16
2022-09-04T12:04:39.447Z,99207.63
2022-09-04T12:07:42.709Z,99219.91
2022-09-04T12:10:24.154Z,99221.59
2022-09-04T12:12:53.765Z,99218.03
2022-09-04T12:15:23.312Z,99224.09
2022-09-04T12:18:34.599Z,99221.13
2022-09-04T12:21:14.167Z,99216.75
2022-09-04T12:23:58.727Z,99222.00
2022-09-04T12:26:51.484Z,99207.38
2022-09-04T12:29:27.544Z,99209.88
2022-09-04T12:32:21.385Z,99206.53
2022-09-04T12:35:12.528Z,99202.34
2022-09-04T12:37:58.345Z,99200.25
2022-09-04T12:40:34.079Z,99202.53
2022-09-04T12:43:16.519Z,99203.25
2022-09-04T12:46:30.983Z,99201.41
2022-09-04T12:49:28.319Z,99197.47
2022-09-04T12:52:32.452Z,99199.75
2022-09-04T12:55:11.191Z,99202.59
2022-09-04T12:57:55.749Z,99206.94
2022-09-04T13:00:26.358Z,99211.22
2022-09-04T13:03:14.880Z,99213.34
2022-09-04T13:05:52.762Z,99210.56
2022-09-04T13:08:54.557Z,99209.78
2022-09-04T13:11:39.136Z,99217.47
2022-09-04T13:14:40.835Z,99214.19
2022-09-04T13:17:30.985Z,99218.47
2022-09-04T13:20:39.065Z,99218.47
2022-09-04T13:23:26.020Z,99223.88
2022-09-04T13:26:24.614Z,99230.59
2022-09-04T13:29:15.830Z,99226.16
2022-09-04T13:31:54.729Z,99226.25
2022-09-04T13:34:30.821Z,99232.69
2022-09-04T13:37:23.354Z,99233.31
2022-09-04T13:40:10.622Z,99231.31
2022-09-04T13:42:52.227Z,99228.81
2022-09-04T13:45:24.095Z,99232.78
2022-09-04T13:48:08.503Z,99233.94
2022-09-04T13:50:40.306Z,99235.97
2022-09-04T13:53:22.314Z,99236.19
2022-09-04T13:56:01.133Z,99236.41
2022-09-04T13:58:33.280Z,99230.06
2022-09-04T14:01:03.119Z,99225.63
2022-09-04T14:03:33.479Z,99228.34
2022-09-04T14:06:01.705Z,99235.06
2022-09-04T14:08:31.176Z,99228.63
2022-09-04T14:11:26.170Z,99223.91
2022-09-04T14:14:03.329Z,99223.69
2022-09-04T14:16:36.603Z,99212.66
2022-09-04T14:19:36.126Z,99231.31
2022-09-04T14:22:17.203Z,99229.50
2022-09-04T14:25:11.937Z,99227.63
2022-09-04T14:27:41.636Z,99226.47
2022-09-04T14:30:41.062Z,99219.81
2022-09-04T14:33:35.484Z,99231.56
2022-09-04T14:36:34.299Z,99234.13
2022-09-04T14:39:06.746Z,99231.91
2022-09-04T14:42:03.622Z,99231.53
2022-09-04T14:44:54.614Z,99233.69
2022-09-04T14:47:27.054Z,99224.81
2022-09-04T14:50:01.321Z,99224.78
2022-09-04T14:52:53.340Z,99224.88
2022-09-04T14:55:32.387Z,99222.66
2022-09-04T14:58:39.075Z,99231.66
2022-09-04T15:01:26.632Z,99232.13
2022-09-04T15:04:01.619Z,99230.22
2022-09-04T15:06:54.740Z,99232.34
2022-09-04T15:09:35.026Z,99238.94
2022-09-04T15:12:26.168Z,99231.13
2022-09-04T15:15:06.021Z,99225.34
2022-09-04T15:17:37.986Z,99225.31
2022-09-04T15:20:22.509Z,99228.44
2022-09-04T15:23:21.568Z,99234.50
2022-09-04T15:26:03.333Z,99239.66
2022-09-04T15:28:45.196Z,99241.28
2022-09-04T15:31:35.491Z,99243.94
2022-09-04T15:34:08.918Z,99245.38
2022-09-04T15:36:37.782Z,99242.88
2022-09-04T15:39:20.522Z,99250.94
2022-09-04T15:41:50.288Z,99243.59
2022-09-04T15:44:26.724Z,99245.09
2022-09-04T15:47:14.343Z,99249.38
2022-09-04T15:50:01.419Z,99243.16
2022-09-04T15:52:43.889Z,99248.31
2022-09-04T15:55:34.713Z,99240.28
2022-09-04T15:58:25.515Z,99258.97
2022-09-04T16:01:17.063Z,99252.09
2022-09-04T16:04:07.191Z,99249.00
2022-09-04T16:06:47.875Z,99250.81
2022-09-04T16:09:27.971Z,99254.34
2022-09-04T16:12:04.294Z,99252.59
2022-09-04T16:14:44.715Z,99251.44
2022-09-04T16:17:21.868Z,99255.69
2022-09-04T16:19:53.818Z,99246.59
2022-09-04T16:22:26.604Z,99261.03
2022-09-04T16:25:10.246Z,99254.53
2022-09-04T16:27:56.460Z,99266.69
2022-09-04T16:30:30.197Z,99260.50
2022-09-04T16:32:58.477Z,99267.66
2022-09-04T16:35:28.510Z,99262.72
2022-09-04T16:38:14.963Z,99261.69
2022-09-04T16:40:56.171Z,99265.50
2022-09-04T16:43:34.117Z,99266.03
2022-09-04T16:46:31.290Z,99257.09
2022-09-04T16:49:19.592Z,99261.69
2022-09-04T16:52:00.213Z,99261.94
2022-09-04T16:54:41.333Z,99264.47
2022-09-04T16:57:21.582Z,99268.88
2022-09-04T16:59:52.774Z,99259.94
2022-09-04T17:02:50.843Z,99258.72
2022-09-04T17:05:52.931Z,99259.59
2022-09-04T17:08:25.540Z,99262.56
2022-09-04T17:11:04.455Z,99262.38
2022-09-04T17:13:43.585Z,99259.72
2022-09-04T17:16:18.549Z,99268.09
2022-09-04T17:18:49.007Z,99266.66
2022-09-04T17:24:25.210Z,99264.13
2022-09-04T17:29:08.973Z,99261.09
2022-09-04T17:29:14.869Z,99268.56
2022-09-04T17:31:52.098Z,99271.56
2022-09-04T17:40:44.300Z,99269.06
2022-09-04T17:41:31.276Z,99274.72
2022-09-04T17:41:52.724Z,99272.84
2022-09-04T17:44:31.792Z,99270.34
2022-09-04T17:47:27.496Z,99279.09
2022-09-04T17:49:55.745Z,99274.75
2022-09-04T17:52:26.914Z,99276.63
2022-09-04T17:54:58.614Z,99284.94
2022-09-04T17:58:03.956Z,99288.28
2022-09-04T18:01:14.653Z,99289.94
2022-09-04T18:04:19.879Z,99287.63
2022-09-04T18:07:21.396Z,99291.53
2022-09-04T18:10:34.130Z,99291.28
2022-09-04T18:13:37.976Z,99290.81
2022-09-04T18:16:26.917Z,99296.41
2022-09-04T18:18:58.531Z,99303.47
2022-09-04T18:21:47.755Z,99305.31
2022-09-04T18:24:53.403Z,99312.94
2022-09-04T18:28:06.214Z,99320.56
2022-09-04T18:37:07.652Z,99320.06
2022-09-04T18:37:19.847Z,99332.38
2022-09-04T18:37:20.789Z,99325.19
2022-09-04T18:39:49.677Z,99333.75
2022-09-04T18:50:32.728Z,99342.09
2022-09-04T18:50:39.337Z,99337.44
2022-09-04T18:50:46.486Z,99349.66
2022-09-04T18:51:25.655Z,99349.56
2022-09-04T18:54:01.672Z,99352.38
2022-09-04T18:59:21.273Z,99354.19
2022-09-04T19:01:58.474Z,99348.28
2022-09-04T19:04:51.353Z,99344.84
2022-09-04T19:07:31.767Z,99353.44
2022-09-04T19:10:16.715Z,99362.00
2022-09-04T19:13:21.798Z,99363.09
2022-09-04T19:15:55.553Z,99364.91
2022-09-04T19:18:35.832Z,99364.72
2022-09-04T19:21:18.584Z,99371.22
2022-09-04T19:23:51.182Z,99372.34
2022-09-04T19:26:35.160Z,99377.53
2022-09-04T19:29:10.668Z,99379.28
2022-09-04T19:31:57.669Z,99379.34
2022-09-04T19:34:45.424Z,99379.38
2022-09-04T19:38:35.758Z,99381.31
2022-09-04T19:46:01.524Z,99384.06
2022-09-04T19:46:14.569Z,99377.16
2022-09-04T19:46:37.154Z,99385.06
2022-09-04T19:51:46.459Z,99390.19
2022-09-04T19:53:34.345Z,99393.09
2022-09-04T19:55:23.478Z,99388.97
2022-09-04T19:58:05.089Z,99385.13
2022-09-04T20:00:42.468Z,99382.97
2022-09-04T20:03:29.950Z,99388.53
2022-09-04T20:06:20.935Z,99393.31
2022-09-04T20:09:14.731Z,99394.88
2022-09-04T20:11:53.934Z,99392.22
2022-09-04T20:14:31.600Z,99387.22
2022-09-04T20:17:08.876Z,99387.91
2022-09-04T20:19:44.926Z,99398.66
2022-09-04T20:22:56.330Z,99405.06
2022-09-04T20:25:28.993Z,99411.13
2022-09-04T20:28:14.604Z,99409.31
2022-09-04T20:30:44.622Z,99403.59
2022-09-04T20:33:22.220Z,99408.66
2022-09-04T20:36:03.024Z,99401.06
2022-09-04T20:38:37.433Z,99407.81
2022-09-04T20:41:27.581Z,99399.59
2022-09-04T20:44:01.275Z,99405.78
2022-09-04T20:52:46.018Z,99400.41
2022-09-04T20:52:49.298Z,99408.81
2022-09-04T20:52:49.485Z,99411.19
2022-09-04T20:55:51.006Z,99416.53
2022-09-04T21:03:04.481Z,99415.50
2022-09-04T21:03:23.238Z,99412.50
2022-09-04T21:04:23.862Z,99415.16
2022-09-04T21:07:33.146Z,99415.31
2022-09-04T21:10:14.858Z,99425.53
2022-09-04T21:13:14.211Z,99420.16
2022-09-04T21:15:47.165Z,99429.84
2022-09-04T21:18:18.334Z,99426.47
2022-09-04T21:21:06.829Z,99433.31
2022-09-04T21:24:03.018Z,99435.66
2022-09-04T21:27:04.888Z,99436.31
2022-09-04T21:29:49.178Z,99439.28
2022-09-04T21:32:43.437Z,99441.78
2022-09-04T21:35:28.195Z,99438.91
2022-09-04T21:38:02.603Z,99450.47
2022-09-04T21:40:51.711Z,99447.44
2022-09-04T21:43:24.936Z,99456.28
2022-09-04T21:46:40.747Z,99455.91
2022-09-04T21:49:37.813Z,99461.63
2022-09-04T21:52:29.140Z,99455.72
2022-09-04T21:56:09.590Z,99463.09
2022-09-04T22:02:45.674Z,99463.31
2022-09-04T22:02:46.280Z,99464.66
2022-09-04T22:03:51.975Z,99480.03
2022-09-04T22:08:38.449Z,99470.13
2022-09-04T22:13:40.330Z,99471.50
2022-09-04T22:13:49.423Z,99473.63
2022-09-04T22:16:29.128Z,99469.44
2022-09-04T22:19:01.754Z,99472.03
2022-09-04T22:21:39.961Z,99473.66
2022-09-04T22:24:32.334Z,99466.94
2022-09-04T22:27:28.645Z,99467.38
2022-09-04T22:30:08.153Z,99470.53
2022-09-04T22:33:02.766Z,99471.00
2022-09-04T22:35:54.821Z,99473.97
2022-09-04T22:39:00.637Z,99468.38
2022-09-04T22:41:50.310Z,99474.34
2022-09-04T22:44:26.040Z,99475.66
2022-09-04T22:46:55.617Z,99476.97
2022-09-04T22:49:35.148Z,99471.91
2022-09-04T22:52:36.873Z,99473.72
2022-09-04T22:55:39.975Z,99477.25
2022-09-04T22:58:20.373Z,99476.56
2022-09-04T23:00:55.791Z,99477.00
2022-09-04T23:03:22.657Z,99480.16
2022-09-04T23:07:30.988Z,99482.72
2022-09-04T23:13:49.989Z,99488.28
2022-09-04T23:13:50.374Z,99491.19
2022-09-04T23:15:51.619Z,99483.38
2022-09-04T23:20:35.802Z,99491.84
2022-09-04T23:26:47.346Z,99500.28
2022-09-04T23:26:58.326Z,99498.06
2022-09-04T23:28:27.128Z,99495.28
2022-09-04T23:31:07.198Z,99493.59
2022-09-04T23:33:41.269Z,99500.94
2022-09-04T23:36:27.388Z,99497.56
2022-09-04T23:39:03.150Z,99503.22
2022-09-04T23:41:53.150Z,99498.97
2022-09-04T23:45:02.142Z,99503.38
2022-09-04T23:47:49.508Z,99507.19
2022-09-04T23:50:37.697Z,99510.31
2022-09-04T23:53:25.340Z,99500.75
2022-09-04T23:55:58.042Z,99505.22
2022-09-04T23:59:04.250Z,99502.03
